createdAt,value
2019-05-10T00:00:44.676Z,36.95
2019-05-10T00:03:38.409Z,40.00
2019-05-10T00:06:25.567Z,41.13
2019-05-10T00:09:01.070Z,40.30
2019-05-10T00:11:49.431Z,42.40
2019-05-10T00:14:42.404Z,46.28
2019-05-10T00:17:13.706Z,46.95
2019-05-10T00:19:49.629Z,49.40
2019-05-10T00:22:19.474Z,45.65
2019-05-10T00:25:02.358Z,45.33
2019-05-10T00:27:27.265Z,47.58
2019-05-10T00:29:57.004Z,47.17
2019-05-10T00:32:33.124Z,46.73
2019-05-10T00:35:09.026Z,40.85
2019-05-10T00:37:38.763Z,46.13
2019-05-10T00:40:15.846Z,44.65
2019-05-10T00:42:51.642Z,42.93
2019-05-10T00:45:28.120Z,43.08
2019-05-10T00:48:04.610Z,39.75
2019-05-10T00:50:34.270Z,41.23
2019-05-10T00:53:10.829Z,42.90
2019-05-10T00:55:46.401Z,40.98
2019-05-10T00:58:28.565Z,41.63
2019-05-10T01:00:58.189Z,40.92
2019-05-10T01:03:34.208Z,40.73
2019-05-10T01:06:03.928Z,44.40
2019-05-10T01:08:40.438Z,46.08
2019-05-10T01:11:09.956Z,41.37
2019-05-10T01:13:45.933Z,45.58
2019-05-10T01:16:15.617Z,45.48
2019-05-10T01:18:51.874Z,50.52
2019-05-10T01:21:21.538Z,45.28
2019-05-10T01:23:58.041Z,46.60
2019-05-10T01:26:34.684Z,45.75
2019-05-10T01:29:11.346Z,48.60
2019-05-10T01:31:40.930Z,48.50
2019-05-10T01:34:17.647Z,49.10
2019-05-10T01:36:47.165Z,51.23
2019-05-10T01:39:16.758Z,53.13
2019-05-10T01:41:52.741Z,50.60
2019-05-10T01:44:28.834Z,52.17
2019-05-10T01:47:05.109Z,52.03
2019-05-10T01:49:41.071Z,54.48
2019-05-10T01:52:17.069Z,55.28
2019-05-10T01:54:53.847Z,55.45
2019-05-10T01:57:36.876Z,56.73
2019-05-10T02:00:11.259Z,55.90
2019-05-10T02:02:47.447Z,55.15
2019-05-10T02:05:17.501Z,57.08
2019-05-10T02:07:53.744Z,60.48
2019-05-10T02:10:23.709Z,57.78
2019-05-10T02:13:00.589Z,51.42
2019-05-10T02:15:36.388Z,58.78
2019-05-10T02:18:19.793Z,54.05
2019-05-10T02:20:49.452Z,49.95
2019-05-10T02:23:25.886Z,59.50
2019-05-10T02:26:09.095Z,52.17
2019-05-10T02:28:40.200Z,53.45
2019-05-10T02:31:21.265Z,55.78
2019-05-10T02:33:48.063Z,52.20
2019-05-10T02:36:30.035Z,55.05
2019-05-10T02:38:59.664Z,50.95
2019-05-10T02:41:36.407Z,49.48
2019-05-10T02:44:06.050Z,54.60
2019-05-10T02:46:42.001Z,51.88
2019-05-10T02:49:11.586Z,55.12
2019-05-10T02:51:53.346Z,60.40
2019-05-10T02:54:23.006Z,52.53
2019-05-10T02:57:01.287Z,54.60
2019-05-10T02:59:45.584Z,56.88
2019-05-10T03:02:16.548Z,55.80
2019-05-10T03:04:47.409Z,57.93
2019-05-10T03:07:26.434Z,54.98
2019-05-10T03:09:56.036Z,54.33
2019-05-10T03:12:33.623Z,56.40
2019-05-10T03:15:12.953Z,54.50
2019-05-10T03:17:49.614Z,52.33
2019-05-10T03:20:19.279Z,48.83
2019-05-10T03:22:56.225Z,52.95
2019-05-10T03:25:32.012Z,58.65
2019-05-10T03:28:07.790Z,54.93
2019-05-10T03:30:44.587Z,53.52
2019-05-10T03:33:14.174Z,59.88
2019-05-10T03:35:43.831Z,59.55
2019-05-10T03:38:19.820Z,50.25
2019-05-10T03:40:56.390Z,51.15
2019-05-10T03:43:25.986Z,50.33
2019-05-10T03:46:03.048Z,48.20
2019-05-10T03:48:39.593Z,52.67
2019-05-10T03:51:16.193Z,57.17
2019-05-10T03:53:45.710Z,57.67
2019-05-10T03:56:22.196Z,56.80
2019-05-10T03:58:58.591Z,57.80
2019-05-10T04:01:41.161Z,61.05
2019-05-10T04:04:10.750Z,55.25
2019-05-10T04:06:46.463Z,58.40
2019-05-10T04:09:16.082Z,59.10
2019-05-10T04:11:51.810Z,62.58
2019-05-10T04:14:21.414Z,61.88
2019-05-10T04:16:57.024Z,62.23
2019-05-10T04:19:26.612Z,69.27
2019-05-10T04:22:02.569Z,64.85
2019-05-10T04:24:38.344Z,66.72
2019-05-10T04:27:30.688Z,67.15
2019-05-10T04:29:52.830Z,71.67
2019-05-10T04:32:28.727Z,72.35
2019-05-10T04:35:04.608Z,74.05
2019-05-10T04:37:34.118Z,68.02
2019-05-10T04:40:11.383Z,70.08
2019-05-10T04:42:41.042Z,64.17
2019-05-10T04:45:17.826Z,63.80
2019-05-10T04:48:00.991Z,76.12
2019-05-10T04:50:36.743Z,75.70
2019-05-10T04:53:06.335Z,73.17
2019-05-10T04:55:37.094Z,72.47
2019-05-10T04:58:13.107Z,68.62
2019-05-10T05:00:49.207Z,68.50
2019-05-10T05:03:25.572Z,72.27
2019-05-10T05:05:55.221Z,68.95
2019-05-10T05:08:31.913Z,71.80
2019-05-10T05:11:08.549Z,68.83
2019-05-10T05:13:45.305Z,68.07
2019-05-10T05:16:21.908Z,70.75
2019-05-10T05:18:51.518Z,68.05
2019-05-10T05:21:27.330Z,74.62
2019-05-10T05:23:56.851Z,68.47
2019-05-10T05:26:32.639Z,71.62
2019-05-10T05:29:08.319Z,66.77
2019-05-10T05:31:44.060Z,66.65
2019-05-10T05:34:19.996Z,71.97
2019-05-10T05:36:55.638Z,67.53
2019-05-10T05:39:31.803Z,72.78
2019-05-10T05:42:16.639Z,67.85
2019-05-10T05:44:46.174Z,65.17
2019-05-10T05:47:22.094Z,69.35
2019-05-10T05:49:51.763Z,67.53
2019-05-10T05:52:28.281Z,72.82
2019-05-10T05:54:59.254Z,68.05
2019-05-10T05:57:35.886Z,67.90
2019-05-10T06:00:12.720Z,67.60
2019-05-10T06:02:49.393Z,63.85
2019-05-10T06:05:32.268Z,69.47
2019-05-10T06:07:52.302Z,79.45
2019-05-10T06:10:27.922Z,78.35
2019-05-10T06:12:57.625Z,70.62
2019-05-10T06:15:34.252Z,69.85
2019-05-10T06:18:09.499Z,67.82
2019-05-10T06:20:38.135Z,61.75
2019-05-10T06:23:13.821Z,63.25
2019-05-10T06:25:43.523Z,62.05
2019-05-10T06:28:27.065Z,59.60
2019-05-10T06:30:51.519Z,61.15
2019-05-10T06:33:27.467Z,58.78
2019-05-10T06:35:57.073Z,58.25
2019-05-10T06:38:34.076Z,57.73
2019-05-10T06:41:17.090Z,65.28
2019-05-10T06:43:45.683Z,62.85
2019-05-10T06:46:23.736Z,63.75
2019-05-10T06:49:07.656Z,64.30
2019-05-10T06:51:36.659Z,63.45
2019-05-10T06:54:06.327Z,59.75
2019-05-10T06:56:43.072Z,65.67
2019-05-10T06:59:26.361Z,57.30
2019-05-10T07:02:01.880Z,57.67
2019-05-10T07:04:44.451Z,59.00
2019-05-10T07:07:22.358Z,57.08
2019-05-10T07:10:15.763Z,55.80
2019-05-10T07:12:23.791Z,56.88
2019-05-10T07:15:03.329Z,57.62
2019-05-10T07:17:30.925Z,54.27
2019-05-10T07:20:06.980Z,53.73
2019-05-10T07:22:36.647Z,54.50
2019-05-10T07:25:14.609Z,61.50
2019-05-10T07:27:44.357Z,51.88
2019-05-10T07:30:15.568Z,54.45
2019-05-10T07:32:54.663Z,57.23
2019-05-10T07:35:22.695Z,52.65
2019-05-10T07:37:59.434Z,56.50
2019-05-10T07:40:36.098Z,51.37
2019-05-10T07:43:05.755Z,51.00
2019-05-10T07:45:42.560Z,53.95
2019-05-10T07:48:12.233Z,57.50
2019-05-10T07:50:54.239Z,55.50
2019-05-10T07:53:31.907Z,51.18
2019-05-10T07:56:08.090Z,53.52
2019-05-10T07:58:43.057Z,53.92
2019-05-10T08:01:32.479Z,53.80
2019-05-10T08:04:00.271Z,54.30
2019-05-10T08:06:43.407Z,55.35
2019-05-10T08:09:16.953Z,56.08
2019-05-10T08:11:59.860Z,52.33
2019-05-10T08:14:25.804Z,52.00
2019-05-10T08:16:58.553Z,52.88
2019-05-10T08:19:37.593Z,51.35
2019-05-10T08:22:05.484Z,53.00
2019-05-10T08:24:46.410Z,56.73
2019-05-10T08:27:14.868Z,50.88
2019-05-10T08:30:15.839Z,52.90
2019-05-10T08:32:25.503Z,55.63
2019-05-10T08:34:59.975Z,51.85
2019-05-10T08:37:37.020Z,55.28
2019-05-10T08:40:19.589Z,50.73
2019-05-10T08:43:02.343Z,49.33
2019-05-10T08:45:32.501Z,48.45
2019-05-10T08:48:06.835Z,49.88
2019-05-10T08:50:49.244Z,49.30
2019-05-10T08:53:18.297Z,51.53
2019-05-10T08:55:58.510Z,48.73
2019-05-10T08:58:37.077Z,48.95
2019-05-10T09:01:16.479Z,46.77
2019-05-10T09:03:55.614Z,46.68
2019-05-10T09:06:27.474Z,47.38
2019-05-10T09:09:07.925Z,51.77
2019-05-10T09:11:34.812Z,49.08
2019-05-10T09:14:04.484Z,49.15
2019-05-10T09:16:46.202Z,48.17
2019-05-10T09:19:12.606Z,45.23
2019-05-10T09:21:49.331Z,48.40
2019-05-10T09:24:19.682Z,47.35
2019-05-10T09:26:54.826Z,43.68
2019-05-10T09:29:35.098Z,44.00
2019-05-10T09:32:01.256Z,43.65
2019-05-10T09:34:36.850Z,45.45
2019-05-10T09:37:16.734Z,42.30
2019-05-10T09:39:44.199Z,41.48
2019-05-10T09:42:26.757Z,43.70
2019-05-10T09:44:52.741Z,41.65
2019-05-10T09:47:22.382Z,38.85
2019-05-10T09:49:59.093Z,38.55
2019-05-10T09:52:35.513Z,39.03
2019-05-10T09:55:17.521Z,40.50
2019-05-10T09:57:48.011Z,39.55
2019-05-10T10:00:27.093Z,38.50
2019-05-10T10:03:04.631Z,37.30
2019-05-10T10:05:40.895Z,38.48
2019-05-10T10:08:17.632Z,38.17
2019-05-10T10:11:01.228Z,36.98
2019-05-10T10:13:39.602Z,37.95
2019-05-10T10:16:04.085Z,31.90
2019-05-10T10:18:36.941Z,34.53
2019-05-10T10:21:06.245Z,32.73
2019-05-10T10:23:41.979Z,35.08
2019-05-10T10:26:22.401Z,36.73
2019-05-10T10:28:55.285Z,33.58
2019-05-10T10:31:33.132Z,29.40
2019-05-10T10:34:02.690Z,30.10
2019-05-10T10:36:42.643Z,28.98
2019-05-10T10:39:10.002Z,31.07
2019-05-10T10:41:48.070Z,31.40
2019-05-10T10:44:18.156Z,31.12
2019-05-10T10:46:48.235Z,33.20
2019-05-10T10:49:30.236Z,30.60
2019-05-10T10:52:05.692Z,30.35
2019-05-10T10:54:39.908Z,33.08
2019-05-10T10:57:09.579Z,30.92
2019-05-10T10:59:47.442Z,28.47
2019-05-10T11:02:31.329Z,29.35
2019-05-10T11:04:55.536Z,28.42
2019-05-10T11:07:33.829Z,29.90
2019-05-10T11:10:18.013Z,29.63
2019-05-10T11:12:47.755Z,40.17
2019-05-10T11:15:28.227Z,25.90
2019-05-10T11:17:57.234Z,33.08
2019-05-10T11:20:33.831Z,26.65
2019-05-10T11:23:03.428Z,28.50
2019-05-10T11:25:42.681Z,26.52
2019-05-10T11:28:20.536Z,25.85
2019-05-10T11:30:56.820Z,25.17
2019-05-10T11:33:33.652Z,29.35
2019-05-10T11:36:08.447Z,25.00
2019-05-10T11:38:53.497Z,26.93
2019-05-10T11:41:23.774Z,26.33
2019-05-10T11:43:57.779Z,25.77
2019-05-10T11:46:33.853Z,23.15
2019-05-10T11:49:03.368Z,19.20
2019-05-10T11:51:33.041Z,21.17
2019-05-10T11:54:11.159Z,19.15
2019-05-10T11:56:46.563Z,18.87
2019-05-10T11:59:27.325Z,22.87
2019-05-10T12:02:02.878Z,19.50
2019-05-10T12:04:38.931Z,18.82
2019-05-10T12:07:27.472Z,21.37
2019-05-10T12:10:13.860Z,23.40
2019-05-10T12:12:54.029Z,21.23
2019-05-10T12:15:13.885Z,23.10
2019-05-10T12:20:26.831Z,19.40
2019-05-10T12:22:52.973Z,23.27
2019-05-10T12:26:16.201Z,28.92
2019-05-10T12:26:31.279Z,19.98
2019-05-10T12:28:24.652Z,16.82
2019-05-10T12:31:07.544Z,16.40
2019-05-10T12:33:34.465Z,15.55
2019-05-10T12:36:22.379Z,18.80
2019-05-10T12:38:41.670Z,17.42
2019-05-10T12:41:17.784Z,17.80
2019-05-10T12:43:48.578Z,16.95
2019-05-10T12:46:25.533Z,17.30
2019-05-10T12:48:55.115Z,17.85
2019-05-10T12:51:31.739Z,17.75
2019-05-10T12:54:08.331Z,17.62
2019-05-10T12:56:46.086Z,18.10
2019-05-10T12:59:22.437Z,17.60
2019-05-10T13:02:11.106Z,18.12
2019-05-10T13:04:40.591Z,19.10
2019-05-10T13:07:21.270Z,16.00
2019-05-10T13:10:02.641Z,26.10
2019-05-10T13:12:28.595Z,16.17
2019-05-10T13:15:04.339Z,24.12
2019-05-10T13:17:44.177Z,21.55
2019-05-10T13:20:11.917Z,19.92
2019-05-10T13:22:47.729Z,13.78
2019-05-10T13:25:24.260Z,14.25
2019-05-10T13:27:53.864Z,15.10
2019-05-10T13:30:30.601Z,31.02
2019-05-10T13:33:06.853Z,24.60
2019-05-10T13:35:43.160Z,19.25
2019-05-10T13:38:12.760Z,17.50
2019-05-10T13:40:45.943Z,19.73
2019-05-10T13:43:26.572Z,16.60
2019-05-10T13:45:57.988Z,15.48
2019-05-10T13:48:27.567Z,14.53
2019-05-10T13:50:57.245Z,20.45
2019-05-10T13:53:33.183Z,13.18
2019-05-10T13:56:02.848Z,13.70
2019-05-10T13:58:46.536Z,13.32
2019-05-10T14:01:16.220Z,19.32
2019-05-10T14:03:59.899Z,14.78
2019-05-10T14:06:29.872Z,15.18
2019-05-10T14:09:12.798Z,21.05
2019-05-10T14:11:46.650Z,24.57
2019-05-10T14:14:26.274Z,13.88
2019-05-10T14:16:52.249Z,15.83
2019-05-10T14:19:23.396Z,16.42
2019-05-10T14:21:59.979Z,14.28
2019-05-10T14:24:29.647Z,16.80
2019-05-10T14:27:05.341Z,16.15
2019-05-10T14:29:36.890Z,22.22
2019-05-10T14:32:12.631Z,18.62
2019-05-10T14:34:49.087Z,73.28
2019-05-10T14:37:20.010Z,23.00
2019-05-10T14:39:56.475Z,12.13
2019-05-10T14:42:31.079Z,14.20
2019-05-10T14:45:04.424Z,16.42
2019-05-10T14:47:46.778Z,13.70
2019-05-10T14:50:19.404Z,13.72
2019-05-10T14:52:52.030Z,13.38
2019-05-10T14:55:34.622Z,14.93
2019-05-10T14:57:59.932Z,29.85
2019-05-10T15:00:36.190Z,14.35
2019-05-10T15:03:12.621Z,34.53
2019-05-10T15:05:42.231Z,14.25
2019-05-10T15:08:25.356Z,13.43
2019-05-10T15:11:02.002Z,13.48
2019-05-10T15:13:38.785Z,14.63
2019-05-10T15:16:26.332Z,13.28
2019-05-10T15:18:45.892Z,12.15
2019-05-10T15:21:22.746Z,14.20
2019-05-10T15:23:55.256Z,12.63
2019-05-10T15:26:37.500Z,12.65
2019-05-10T15:29:15.184Z,15.25
2019-05-10T16:18:55.423Z,17.45
2019-05-10T16:21:31.353Z,43.48
2019-05-10T16:24:00.977Z,39.67
2019-05-10T16:26:37.791Z,31.57
2019-05-10T16:29:14.516Z,28.17
2019-05-10T16:31:44.215Z,35.78
2019-05-10T16:34:20.151Z,55.67
2019-05-10T16:36:56.828Z,54.50
2019-05-10T16:39:26.499Z,35.55
2019-05-10T16:42:02.338Z,17.82
2019-05-10T16:44:38.539Z,23.52
2019-05-10T16:47:14.460Z,12.75
2019-05-10T16:49:53.346Z,11.03
2019-05-10T16:52:28.717Z,13.68
2019-05-10T16:55:05.597Z,20.52
2019-05-10T16:57:37.262Z,9.20
2019-05-10T17:00:16.375Z,9.58
2019-05-10T17:02:52.253Z,12.20
2019-05-10T17:05:21.990Z,11.08
2019-05-10T17:07:59.138Z,12.63
2019-05-10T17:10:32.990Z,13.08
2019-05-10T17:13:08.063Z,17.17
2019-05-10T17:15:39.693Z,12.98
2019-05-10T17:18:19.912Z,12.43
2019-05-10T17:20:50.734Z,12.10
2019-05-10T17:23:18.872Z,13.03
2019-05-10T17:25:55.243Z,13.20
2019-05-10T17:28:29.622Z,13.15
2019-05-10T17:31:07.930Z,14.58
2019-05-10T17:33:42.687Z,11.43
2019-05-10T17:36:14.545Z,15.93
2019-05-10T17:38:53.358Z,15.03
2019-05-10T17:41:24.708Z,15.28
2019-05-10T17:44:06.963Z,15.38
2019-05-10T17:46:36.966Z,13.65
2019-05-10T17:49:13.204Z,12.23
2019-05-10T17:51:42.921Z,13.00
2019-05-10T17:54:25.202Z,13.10
2019-05-10T17:56:55.016Z,11.63
2019-05-10T17:59:31.007Z,12.53
2019-05-10T18:02:09.819Z,15.38
2019-05-10T18:04:39.467Z,13.70
2019-05-10T18:07:15.973Z,12.43
2019-05-10T18:09:45.719Z,12.82
2019-05-10T18:12:19.806Z,13.05
2019-05-10T18:14:55.751Z,15.23
2019-05-10T18:17:27.435Z,14.18
2019-05-10T18:20:03.952Z,15.68
2019-05-10T18:22:42.212Z,12.88
2019-05-10T18:25:19.574Z,14.73
2019-05-10T18:27:43.800Z,13.62
2019-05-10T18:30:21.363Z,14.00
2019-05-10T18:32:57.870Z,15.23
2019-05-10T18:35:33.658Z,17.57
2019-05-10T18:38:10.338Z,19.12
2019-05-10T18:40:40.009Z,17.90
2019-05-10T18:43:15.980Z,17.62
2019-05-10T18:45:45.752Z,18.90
2019-05-10T18:48:22.391Z,19.85
2019-05-10T18:50:58.934Z,27.25
2019-05-10T18:53:35.111Z,48.25
2019-05-10T18:56:11.842Z,19.50
2019-05-10T18:58:41.443Z,22.35
2019-05-10T19:36:14.375Z,34.78
2019-05-10T19:38:43.897Z,31.80
2019-05-10T19:41:20.081Z,29.98
2019-05-10T19:43:55.924Z,26.33
2019-05-10T19:46:39.232Z,24.27
2019-05-10T19:49:13.058Z,21.57
2019-05-10T19:51:48.846Z,20.37
2019-05-10T19:54:21.082Z,32.63
2019-05-10T19:57:00.081Z,37.50
2019-05-10T19:59:29.775Z,47.62
2019-05-10T20:02:12.744Z,44.30
2019-05-10T20:04:42.415Z,40.55
2019-05-10T20:07:18.217Z,36.10
2019-05-10T20:09:48.030Z,33.20
2019-05-10T20:12:24.557Z,23.83
2019-05-10T20:14:54.295Z,21.17
2019-05-10T20:18:26.871Z,22.62
2019-05-10T20:21:02.775Z,22.75
2019-05-10T20:23:34.211Z,25.17
2019-05-10T20:26:12.171Z,24.07
2019-05-10T20:28:44.060Z,24.55
2019-05-10T20:31:20.226Z,18.55
2019-05-10T20:33:50.006Z,18.67
2019-05-10T20:36:33.423Z,17.45
2019-05-10T20:39:09.889Z,20.57
2019-05-10T20:41:52.490Z,19.77
2019-05-10T20:44:28.909Z,16.73
2019-05-10T20:47:11.943Z,16.87
2019-05-10T20:49:48.515Z,20.30
2019-05-10T20:52:31.846Z,19.30
2019-05-10T20:55:15.431Z,15.83
2019-05-10T20:57:51.751Z,17.15
2019-05-10T21:00:33.577Z,14.80
2019-05-10T21:03:16.114Z,15.70
2019-05-10T21:05:58.707Z,16.77
2019-05-10T21:08:28.240Z,17.20
2019-05-10T21:11:11.138Z,14.05
2019-05-10T21:13:57.780Z,16.87
2019-05-10T21:16:32.140Z,18.17
2019-05-10T21:19:08.533Z,15.25
2019-05-10T21:21:43.993Z,16.40
2019-05-10T21:24:19.903Z,18.67
2019-05-10T21:26:56.381Z,17.82
2019-05-10T21:29:39.211Z,20.30
2019-05-10T21:32:15.670Z,17.93
2019-05-10T21:37:59.448Z,17.00
2019-05-10T21:40:35.416Z,19.45
2019-05-10T21:43:18.174Z,21.02
2019-05-10T21:45:54.640Z,20.40
2019-05-10T21:48:37.615Z,21.87
2019-05-10T21:51:13.734Z,17.50
2019-05-10T21:53:56.734Z,18.95
2019-05-10T21:56:39.143Z,17.27
2019-05-10T21:59:15.050Z,18.73
2019-05-10T22:01:50.958Z,18.48
2019-05-10T22:04:26.975Z,17.42
2019-05-10T22:07:03.457Z,17.30
2019-05-10T22:09:46.179Z,17.90
2019-05-10T22:12:22.544Z,17.40
2019-05-10T22:15:05.156Z,20.40
2019-05-10T22:17:41.211Z,15.00
2019-05-10T22:20:24.259Z,15.28
2019-05-10T22:23:00.339Z,15.28
2019-05-10T22:25:36.223Z,14.23
2019-05-10T22:28:11.929Z,18.37
2019-05-10T22:30:48.429Z,16.60
2019-05-10T22:33:30.770Z,15.30
2019-05-10T22:36:07.002Z,16.23
2019-05-10T22:39:04.551Z,16.75
2019-05-10T22:41:27.633Z,15.78
2019-05-10T22:44:09.804Z,16.12
2019-05-10T22:46:46.219Z,16.97
2019-05-10T22:49:28.827Z,18.02
2019-05-10T22:52:04.987Z,16.20
2019-05-10T22:54:47.495Z,16.75
2019-05-10T22:57:30.240Z,17.48
2019-05-10T23:00:09.390Z,17.05
2019-05-10T23:02:45.813Z,17.20
2019-05-10T23:05:22.401Z,17.42
2019-05-10T23:07:58.434Z,15.08
2019-05-10T23:10:41.104Z,18.62
2019-05-10T23:13:17.050Z,18.27
2019-05-10T23:15:53.222Z,17.45
2019-05-10T23:18:36.298Z,17.12
2019-05-10T23:21:12.225Z,15.43
2019-05-10T23:23:48.417Z,18.30
2019-05-10T23:26:24.122Z,16.15
2019-05-10T23:29:06.844Z,16.30
2019-05-10T23:31:42.534Z,17.45
2019-05-10T23:34:25.000Z,18.52
2019-05-10T23:37:16.273Z,19.48
2019-05-10T23:39:52.227Z,20.15
2019-05-10T23:42:28.110Z,20.55
2019-05-10T23:45:10.581Z,20.65
2019-05-10T23:47:46.131Z,17.75
2019-05-10T23:50:28.683Z,17.65
2019-05-10T23:53:05.032Z,18.27
2019-05-10T23:55:47.984Z,19.17
2019-05-10T23:58:23.683Z,21.30
